YKB YSBK-YSBK
Flight info
| Callsign | YKB |
|---|---|
| Flight time | N/A |
| Altitude | 38000 |
| Route | HOW HIGH CAN IT GO |
| Aircraft | DA42/L-SADE2E3FGHIJ3J4J5M1RWXY/LB1D1 |
Departure
| Time | 2026-05-05 09:05 |
|---|---|
| Airport | Sydney Bankstown Airport (YSBK) |
Arrival
| Time | N/A |
|---|---|
| Airport | Sydney Bankstown Airport (YSBK) |
| Time | Latitude | Longitude | Altitude | Speed | Heading |
|---|---|---|---|---|---|
| 2026-05-05 09:05 | -33.83963 | 150.86752 | 5867 ft | 85 kts | 303° |
| 2026-05-05 09:05 | -33.83602 | 150.86179 | 6140 ft | 85 kts | 302° |
| 2026-05-05 09:05 | -33.83253 | 150.85619 | 6414 ft | 85 kts | 302° |
| 2026-05-05 09:05 | -33.82901 | 150.85046 | 6682 ft | 85 kts | 302° |
| 2026-05-05 09:06 | -33.82544 | 150.84468 | 6911 ft | 90 kts | 302° |
| 2026-05-05 09:06 | -33.82167 | 150.83861 | 7153 ft | 93 kts | 303° |
| 2026-05-05 09:06 | -33.81769 | 150.83226 | 7415 ft | 95 kts | 302° |
| 2026-05-05 09:06 | -33.81368 | 150.82596 | 7695 ft | 95 kts | 302° |
| 2026-05-05 09:07 | -33.80961 | 150.81966 | 7960 ft | 96 kts | 303° |
| 2026-05-05 09:07 | -33.80552 | 150.81332 | 8229 ft | 96 kts | 303° |
| 2026-05-05 09:07 | -33.80140 | 150.80696 | 8494 ft | 97 kts | 302° |
| 2026-05-05 09:07 | -33.79726 | 150.80058 | 8751 ft | 97 kts | 302° |
| 2026-05-05 09:08 | -33.79303 | 150.79408 | 9007 ft | 98 kts | 302° |
| 2026-05-05 09:08 | -33.78886 | 150.78764 | 9249 ft | 100 kts | 303° |
| 2026-05-05 09:08 | -33.78459 | 150.78108 | 9515 ft | 99 kts | 302° |
| 2026-05-05 09:08 | -33.78027 | 150.77452 | 9765 ft | 100 kts | 303° |
| 2026-05-05 09:09 | -33.77591 | 150.76791 | 10015 ft | 101 kts | 303° |
| 2026-05-05 09:09 | -33.77153 | 150.76128 | 10270 ft | 102 kts | 303° |
| 2026-05-05 09:09 | -33.76717 | 150.75465 | 10534 ft | 102 kts | 303° |
| 2026-05-05 09:09 | -33.76275 | 150.74794 | 10798 ft | 102 kts | 302° |
| 2026-05-05 09:10 | -33.75831 | 150.74127 | 11059 ft | 103 kts | 303° |
| 2026-05-05 09:10 | -33.75384 | 150.73450 | 11320 ft | 103 kts | 302° |
| 2026-05-05 09:10 | -33.75006 | 150.72745 | 11560 ft | 100 kts | 277° |
| 2026-05-05 09:10 | -33.75067 | 150.71918 | 11808 ft | 99 kts | 254° |
| 2026-05-05 09:11 | -33.75246 | 150.71121 | 12055 ft | 100 kts | 252° |
| 2026-05-05 09:11 | -33.75434 | 150.70328 | 12315 ft | 99 kts | 252° |
| 2026-05-05 09:11 | -33.75622 | 150.69533 | 12563 ft | 99 kts | 252° |
| 2026-05-05 09:11 | -33.75809 | 150.68741 | 12811 ft | 99 kts | 252° |
| 2026-05-05 09:12 | -33.75927 | 150.68240 | 12958 ft | 100 kts | 252° |
| 2026-05-05 09:12 | -33.76121 | 150.67433 | 13195 ft | 101 kts | 252° |
| 2026-05-05 09:12 | -33.76317 | 150.66626 | 13432 ft | 100 kts | 252° |
| 2026-05-05 09:12 | -33.76513 | 150.65828 | 13661 ft | 101 kts | 252° |
| 2026-05-05 09:13 | -33.76712 | 150.65013 | 13888 ft | 102 kts | 252° |
| 2026-05-05 09:13 | -33.76915 | 150.64189 | 14110 ft | 103 kts | 252° |
| 2026-05-05 09:13 | -33.77034 | 150.63348 | 14330 ft | 105 kts | 275° |
| 2026-05-05 09:13 | -33.76866 | 150.62488 | 14558 ft | 106 kts | 282° |
| 2026-05-05 09:14 | -33.76661 | 150.61653 | 14785 ft | 105 kts | 282° |
| 2026-05-05 09:14 | -33.76451 | 150.60809 | 15013 ft | 105 kts | 283° |
| 2026-05-05 09:14 | -33.76240 | 150.59966 | 15233 ft | 106 kts | 282° |
| 2026-05-05 09:14 | -33.76031 | 150.59117 | 15457 ft | 106 kts | 282° |
| 2026-05-05 09:15 | -33.75820 | 150.58263 | 15680 ft | 105 kts | 283° |
| 2026-05-05 09:15 | -33.75617 | 150.57419 | 15894 ft | 105 kts | 282° |
| 2026-05-05 09:15 | -33.75413 | 150.56575 | 16100 ft | 106 kts | 282° |
| 2026-05-05 09:15 | -33.75208 | 150.55722 | 16322 ft | 105 kts | 283° |
| 2026-05-05 09:16 | -33.75008 | 150.54872 | 16519 ft | 107 kts | 282° |
| 2026-05-05 09:16 | -33.74812 | 150.54021 | 16738 ft | 106 kts | 282° |
| 2026-05-05 09:16 | -33.74614 | 150.53160 | 16938 ft | 107 kts | 282° |
| 2026-05-05 09:16 | -33.74419 | 150.52300 | 17123 ft | 108 kts | 282° |
| 2026-05-05 09:17 | -33.74221 | 150.51442 | 17326 ft | 107 kts | 282° |
| 2026-05-05 09:17 | -33.74022 | 150.50572 | 17516 ft | 108 kts | 282° |
| 2026-05-05 09:17 | -33.73822 | 150.49703 | 17714 ft | 108 kts | 282° |
| 2026-05-05 09:17 | -33.73623 | 150.48837 | 17901 ft | 109 kts | 282° |
| 2026-05-05 09:18 | -33.73422 | 150.47955 | 18096 ft | 109 kts | 282° |
| 2026-05-05 09:18 | -33.73224 | 150.47081 | 18272 ft | 110 kts | 282° |
| 2026-05-05 09:18 | -33.73024 | 150.46190 | 18462 ft | 110 kts | 282° |
| 2026-05-05 09:18 | -33.72826 | 150.45308 | 18651 ft | 109 kts | 283° |
| 2026-05-05 09:19 | -33.72633 | 150.44435 | 18844 ft | 108 kts | 282° |
| 2026-05-05 09:19 | -33.72445 | 150.43559 | 19022 ft | 108 kts | 282° |
| 2026-05-05 09:19 | -33.72256 | 150.42690 | 19202 ft | 108 kts | 282° |
| 2026-05-05 09:19 | -33.72066 | 150.41812 | 19370 ft | 109 kts | 282° |
| 2026-05-05 09:20 | -33.71877 | 150.40933 | 19548 ft | 108 kts | 282° |
| 2026-05-05 09:20 | -33.71687 | 150.40057 | 19720 ft | 108 kts | 282° |
| 2026-05-05 09:20 | -33.71495 | 150.39178 | 19880 ft | 109 kts | 282° |
| 2026-05-05 09:20 | -33.71304 | 150.38300 | 20043 ft | 110 kts | 282° |
| 2026-05-05 09:21 | -33.71114 | 150.37416 | 20222 ft | 109 kts | 282° |
| 2026-05-05 09:21 | -33.70929 | 150.36534 | 20385 ft | 109 kts | 282° |
| 2026-05-05 09:21 | -33.70748 | 150.35655 | 20550 ft | 109 kts | 282° |
| 2026-05-05 09:21 | -33.70565 | 150.34758 | 20713 ft | 109 kts | 282° |
| 2026-05-05 09:22 | -33.70379 | 150.33844 | 20877 ft | 110 kts | 283° |
| 2026-05-05 09:22 | -33.70199 | 150.32947 | 21049 ft | 109 kts | 282° |
| 2026-05-05 09:22 | -33.70024 | 150.32059 | 21214 ft | 109 kts | 282° |
| 2026-05-05 09:22 | -33.69849 | 150.31174 | 21380 ft | 109 kts | 282° |
| 2026-05-05 09:23 | -33.69671 | 150.30272 | 21539 ft | 110 kts | 282° |
| 2026-05-05 09:23 | -33.69495 | 150.29381 | 21688 ft | 111 kts | 282° |
| 2026-05-05 09:23 | -33.69318 | 150.28484 | 21858 ft | 110 kts | 282° |
| 2026-05-05 09:23 | -33.69138 | 150.27580 | 22013 ft | 111 kts | 282° |
| 2026-05-05 09:24 | -33.68962 | 150.26688 | 22169 ft | 111 kts | 282° |
| 2026-05-05 09:24 | -33.68784 | 150.25784 | 22331 ft | 111 kts | 282° |
| 2026-05-05 09:24 | -33.68610 | 150.24887 | 22493 ft | 110 kts | 282° |
| 2026-05-05 09:24 | -33.68438 | 150.23984 | 22657 ft | 110 kts | 282° |
| 2026-05-05 09:25 | -33.68268 | 150.23082 | 22813 ft | 111 kts | 282° |
| 2026-05-05 09:25 | -33.68099 | 150.22176 | 22978 ft | 110 kts | 282° |
| 2026-05-05 09:25 | -33.67935 | 150.21281 | 23142 ft | 109 kts | 282° |
| 2026-05-05 09:25 | -33.67795 | 150.20329 | 23164 ft | 119 kts | 277° |
| 2026-05-05 09:26 | -33.67815 | 150.19330 | 23279 ft | 124 kts | 262° |
| 2026-05-05 09:26 | -33.67928 | 150.18298 | 23422 ft | 123 kts | 275° |
| 2026-05-05 09:26 | -33.67816 | 150.17335 | 23676 ft | 114 kts | 281° |
| 2026-05-05 09:26 | -33.67656 | 150.16409 | 23876 ft | 111 kts | 282° |
| 2026-05-05 09:27 | -33.67494 | 150.15505 | 24018 ft | 112 kts | 282° |
| 2026-05-05 09:27 | -33.67335 | 150.14600 | 24176 ft | 111 kts | 282° |
| 2026-05-05 09:27 | -33.67177 | 150.13692 | 24330 ft | 110 kts | 282° |
| 2026-05-05 09:27 | -33.67022 | 150.12779 | 24464 ft | 111 kts | 282° |
| 2026-05-05 09:28 | -33.66869 | 150.11871 | 24615 ft | 111 kts | 282° |
| 2026-05-05 09:28 | -33.66720 | 150.10963 | 24755 ft | 111 kts | 282° |
| 2026-05-05 09:28 | -33.66573 | 150.10053 | 24892 ft | 111 kts | 282° |
| 2026-05-05 09:28 | -33.66429 | 150.09142 | 25033 ft | 111 kts | 282° |
| 2026-05-05 09:29 | -33.66286 | 150.08234 | 25166 ft | 111 kts | 282° |
| 2026-05-05 09:29 | -33.66143 | 150.07323 | 25301 ft | 111 kts | 283° |
| 2026-05-05 09:29 | -33.66002 | 150.06415 | 25441 ft | 110 kts | 282° |
| 2026-05-05 09:29 | -33.65863 | 150.05510 | 25572 ft | 110 kts | 282° |
| 2026-05-05 09:30 | -33.65724 | 150.04593 | 25684 ft | 112 kts | 282° |
| 2026-05-05 09:30 | -33.65586 | 150.03676 | 25812 ft | 111 kts | 282° |
| 2026-05-05 09:30 | -33.65452 | 150.02773 | 25940 ft | 111 kts | 282° |
| 2026-05-05 09:30 | -33.65316 | 150.01846 | 26056 ft | 111 kts | 282° |
| 2026-05-05 09:31 | -33.65181 | 150.00931 | 26168 ft | 112 kts | 282° |
| 2026-05-05 09:31 | -33.65046 | 150.00018 | 26293 ft | 112 kts | 282° |
| 2026-05-05 09:31 | -33.64834 | 149.99124 | 26410 ft | 110 kts | 291° |
| 2026-05-05 09:31 | -33.64555 | 149.98274 | 26524 ft | 110 kts | 292° |
| 2026-05-05 09:32 | -33.64262 | 149.97411 | 26628 ft | 111 kts | 292° |
| 2026-05-05 09:32 | -33.63971 | 149.96562 | 26741 ft | 111 kts | 292° |
| 2026-05-05 09:32 | -33.63672 | 149.95695 | 26845 ft | 111 kts | 292° |
| 2026-05-05 09:32 | -33.63379 | 149.94842 | 26956 ft | 111 kts | 292° |
| 2026-05-05 09:33 | -33.63090 | 149.93997 | 27068 ft | 110 kts | 292° |
| 2026-05-05 09:33 | -33.62800 | 149.93133 | 27159 ft | 111 kts | 292° |
| 2026-05-05 09:33 | -33.62511 | 149.92271 | 27259 ft | 111 kts | 292° |
| 2026-05-05 09:33 | -33.62225 | 149.91412 | 27353 ft | 112 kts | 292° |
| 2026-05-05 09:34 | -33.61938 | 149.90549 | 27459 ft | 111 kts | 292° |
| 2026-05-05 09:34 | -33.61645 | 149.89677 | 27548 ft | 112 kts | 292° |
| 2026-05-05 09:34 | -33.61357 | 149.88818 | 27659 ft | 111 kts | 292° |
| 2026-05-05 09:34 | -33.61066 | 149.87959 | 27736 ft | 112 kts | 292° |
| 2026-05-05 09:35 | -33.60770 | 149.87085 | 27828 ft | 112 kts | 292° |
| 2026-05-05 09:35 | -33.60195 | 149.85365 | 28028 ft | 110 kts | 292° |
| 2026-05-05 09:35 | -33.59911 | 149.84506 | 28113 ft | 110 kts | 292° |
| 2026-05-05 09:36 | -33.59629 | 149.83649 | 28208 ft | 110 kts | 292° |
| 2026-05-05 09:36 | -33.59348 | 149.82787 | 28287 ft | 110 kts | 292° |
| 2026-05-05 09:36 | -33.59070 | 149.81921 | 28376 ft | 110 kts | 292° |
| 2026-05-05 09:36 | -33.58797 | 149.81059 | 28447 ft | 111 kts | 292° |
| 2026-05-05 09:37 | -33.58524 | 149.80202 | 28527 ft | 111 kts | 291° |
| 2026-05-05 09:37 | -33.58242 | 149.79336 | 28604 ft | 111 kts | 292° |
| 2026-05-05 09:37 | -33.57960 | 149.78468 | 28683 ft | 112 kts | 292° |
| 2026-05-05 09:37 | -33.57677 | 149.77596 | 28764 ft | 111 kts | 291° |
| 2026-05-05 09:38 | -33.57392 | 149.76729 | 28835 ft | 112 kts | 292° |
| 2026-05-05 09:38 | -33.57103 | 149.75853 | 28912 ft | 112 kts | 291° |
| 2026-05-05 09:38 | -33.56818 | 149.74983 | 28992 ft | 112 kts | 292° |
| 2026-05-05 09:38 | -33.56535 | 149.74123 | 29051 ft | 112 kts | 292° |
| 2026-05-05 09:39 | -33.56251 | 149.73250 | 29132 ft | 112 kts | 291° |
| 2026-05-05 09:39 | -33.55971 | 149.72377 | 29193 ft | 112 kts | 292° |
| 2026-05-05 09:39 | -33.55691 | 149.71500 | 29268 ft | 112 kts | 292° |
| 2026-05-05 09:39 | -33.55415 | 149.70625 | 29346 ft | 111 kts | 292° |
| 2026-05-05 09:40 | -33.55135 | 149.69745 | 29401 ft | 112 kts | 292° |
| 2026-05-05 09:40 | -33.54854 | 149.68866 | 29462 ft | 113 kts | 292° |
| 2026-05-05 09:40 | -33.54572 | 149.67995 | 29522 ft | 113 kts | 292° |
| 2026-05-05 09:40 | -33.54280 | 149.67101 | 29591 ft | 113 kts | 292° |
| 2026-05-05 09:41 | -33.53995 | 149.66219 | 29649 ft | 113 kts | 291° |
| 2026-05-05 09:41 | -33.53711 | 149.65338 | 29710 ft | 113 kts | 292° |
| 2026-05-05 09:41 | -33.53433 | 149.64475 | 29782 ft | 112 kts | 292° |
| 2026-05-05 09:41 | -33.53148 | 149.63588 | 29836 ft | 113 kts | 291° |
| 2026-05-05 09:42 | -33.52866 | 149.62717 | 29901 ft | 112 kts | 292° |
| 2026-05-05 09:42 | -33.52587 | 149.61845 | 29965 ft | 112 kts | 292° |
| 2026-05-05 09:42 | -33.52310 | 149.60974 | 30014 ft | 112 kts | 292° |
| 2026-05-05 09:42 | -33.52029 | 149.60089 | 30065 ft | 112 kts | 292° |
| 2026-05-05 09:43 | -33.51749 | 149.59213 | 30108 ft | 113 kts | 292° |
| 2026-05-05 09:43 | -33.51465 | 149.58330 | 30162 ft | 113 kts | 291° |
| 2026-05-05 09:43 | -33.51183 | 149.57452 | 30210 ft | 113 kts | 291° |
| 2026-05-05 09:43 | -33.50896 | 149.56572 | 30256 ft | 113 kts | 292° |
| 2026-05-05 09:44 | -33.50613 | 149.55693 | 30306 ft | 112 kts | 291° |
| 2026-05-05 09:44 | -33.50332 | 149.54816 | 30346 ft | 113 kts | 291° |
| 2026-05-05 09:44 | -33.50054 | 149.53947 | 30385 ft | 113 kts | 292° |
| 2026-05-05 09:44 | -33.49773 | 149.53059 | 30442 ft | 112 kts | 292° |
| 2026-05-05 09:45 | -33.49499 | 149.52188 | 30495 ft | 112 kts | 292° |
| 2026-05-05 09:45 | -33.49223 | 149.51312 | 30536 ft | 112 kts | 292° |
| 2026-05-05 09:45 | -33.48949 | 149.50444 | 30564 ft | 113 kts | 291° |
| 2026-05-05 09:45 | -33.48675 | 149.49562 | 30616 ft | 112 kts | 292° |
| 2026-05-05 09:46 | -33.48401 | 149.48686 | 30658 ft | 112 kts | 292° |
| 2026-05-05 09:46 | -33.48132 | 149.47812 | 30685 ft | 112 kts | 291° |
| 2026-05-05 09:46 | -33.47859 | 149.46925 | 30726 ft | 113 kts | 291° |
| 2026-05-05 09:46 | -33.47588 | 149.46039 | 30781 ft | 112 kts | 291° |
| 2026-05-05 09:47 | -33.47318 | 149.45163 | 30830 ft | 112 kts | 291° |
| 2026-05-05 09:47 | -33.47045 | 149.44290 | 30888 ft | 112 kts | 291° |
| 2026-05-05 09:47 | -33.46771 | 149.43417 | 30937 ft | 111 kts | 291° |
| 2026-05-05 09:47 | -33.46496 | 149.42540 | 30972 ft | 112 kts | 291° |
| 2026-05-05 09:48 | -33.46224 | 149.41670 | 31019 ft | 112 kts | 291° |
| 2026-05-05 09:48 | -33.45954 | 149.40805 | 31072 ft | 111 kts | 291° |
| 2026-05-05 09:48 | -33.45684 | 149.39929 | 31106 ft | 112 kts | 291° |
| 2026-05-05 09:48 | -33.45412 | 149.39059 | 31139 ft | 112 kts | 291° |
| 2026-05-05 09:49 | -33.45140 | 149.38185 | 31161 ft | 112 kts | 291° |
| 2026-05-05 09:49 | -33.44865 | 149.37297 | 31184 ft | 113 kts | 291° |
| 2026-05-05 09:49 | -33.44591 | 149.36415 | 31215 ft | 113 kts | 291° |
| 2026-05-05 09:49 | -33.44321 | 149.35539 | 31238 ft | 113 kts | 291° |
| 2026-05-05 09:50 | -33.44048 | 149.34653 | 31279 ft | 112 kts | 292° |
| 2026-05-05 09:50 | -33.43778 | 149.33784 | 31308 ft | 113 kts | 292° |
| 2026-05-05 09:50 | -33.43496 | 149.32880 | 31349 ft | 113 kts | 292° |
| 2026-05-05 09:50 | -33.43222 | 149.31995 | 31385 ft | 113 kts | 292° |
| 2026-05-05 09:51 | -33.42949 | 149.31110 | 31420 ft | 113 kts | 292° |
| 2026-05-05 09:51 | -33.42677 | 149.30225 | 31462 ft | 113 kts | 292° |
| 2026-05-05 09:51 | -33.42408 | 149.29353 | 31493 ft | 113 kts | 292° |
| 2026-05-05 09:51 | -33.42136 | 149.28471 | 31538 ft | 112 kts | 292° |
| 2026-05-05 09:52 | -33.41860 | 149.27589 | 31561 ft | 114 kts | 292° |
| 2026-05-05 09:52 | -33.41582 | 149.26695 | 31608 ft | 113 kts | 292° |
| 2026-05-05 09:52 | -33.41308 | 149.25824 | 31632 ft | 113 kts | 292° |
| 2026-05-05 09:52 | -33.41034 | 149.24940 | 31672 ft | 113 kts | 292° |
| 2026-05-05 09:53 | -33.40758 | 149.24059 | 31698 ft | 113 kts | 292° |
| 2026-05-05 09:53 | -33.40480 | 149.23169 | 31725 ft | 114 kts | 292° |
| 2026-05-05 09:53 | -33.40199 | 149.22270 | 31750 ft | 114 kts | 292° |
| 2026-05-05 09:53 | -33.39919 | 149.21379 | 31789 ft | 113 kts | 292° |
| 2026-05-05 09:54 | -33.39643 | 149.20497 | 31822 ft | 113 kts | 292° |
| 2026-05-05 09:54 | -33.39366 | 149.19606 | 31847 ft | 114 kts | 292° |
| 2026-05-05 09:54 | -33.39093 | 149.18720 | 31893 ft | 113 kts | 292° |
| 2026-05-05 09:54 | -33.38822 | 149.17835 | 31926 ft | 113 kts | 292° |
| 2026-05-05 09:55 | -33.38553 | 149.16946 | 31974 ft | 112 kts | 292° |
| 2026-05-05 09:55 | -33.38289 | 149.16069 | 32010 ft | 112 kts | 292° |
| 2026-05-05 09:55 | -33.38026 | 149.15192 | 32040 ft | 112 kts | 291° |
| 2026-05-05 09:55 | -33.37763 | 149.14313 | 32076 ft | 112 kts | 291° |
| 2026-05-05 09:56 | -33.37497 | 149.13432 | 32108 ft | 113 kts | 292° |
| 2026-05-05 09:56 | -33.37230 | 149.12550 | 32136 ft | 113 kts | 292° |
| 2026-05-05 09:56 | -33.36957 | 149.11664 | 32162 ft | 114 kts | 292° |
| 2026-05-05 09:56 | -33.36684 | 149.10776 | 32198 ft | 114 kts | 291° |
| 2026-05-05 09:57 | -33.36405 | 149.09872 | 32207 ft | 115 kts | 291° |
| 2026-05-05 09:57 | -33.36123 | 149.08964 | 32207 ft | 117 kts | 292° |
| 2026-05-05 09:57 | -33.35840 | 149.08041 | 32209 ft | 119 kts | 291° |
| 2026-05-05 09:57 | -33.35548 | 149.07092 | 32209 ft | 121 kts | 291° |
| 2026-05-05 09:58 | -33.35283 | 149.06134 | 32208 ft | 123 kts | 290° |
| 2026-05-05 09:58 | -33.35022 | 149.05154 | 32210 ft | 125 kts | 289° |
| 2026-05-05 09:58 | -33.34756 | 149.04147 | 32211 ft | 126 kts | 290° |
| 2026-05-05 09:58 | -33.34487 | 149.03136 | 32205 ft | 128 kts | 290° |
| 2026-05-05 09:59 | -33.34185 | 149.02141 | 32203 ft | 129 kts | 298° |
| 2026-05-05 09:59 | -33.33725 | 149.01215 | 32205 ft | 129 kts | 301° |
| 2026-05-05 09:59 | -33.33230 | 149.00307 | 32207 ft | 130 kts | 302° |
| 2026-05-05 09:59 | -33.32468 | 148.99722 | 32201 ft | 143 kts | 345° |
| 2026-05-05 10:00 | -33.31437 | 148.99991 | 32210 ft | 159 kts | 7° |
| 2026-05-05 10:00 | -33.30411 | 149.00537 | 32205 ft | 164 kts | 14° |
| 2026-05-05 10:00 | -33.29623 | 149.01657 | 32204 ft | 193 kts | 60° |
| 2026-05-05 10:00 | -33.29419 | 149.03278 | 32193 ft | 207 kts | 91° |
| 2026-05-05 10:01 | -33.29766 | 149.04954 | 32205 ft | 211 kts | 107° |
| 2026-05-05 10:01 | -33.30303 | 149.06606 | 32202 ft | 212 kts | 108° |
| 2026-05-05 10:01 | -33.30855 | 149.08243 | 32206 ft | 213 kts | 108° |
| 2026-05-05 10:01 | -33.31408 | 149.09888 | 32215 ft | 214 kts | 109° |
| 2026-05-05 10:02 | -33.31960 | 149.11545 | 32209 ft | 215 kts | 109° |
| 2026-05-05 10:02 | -33.32825 | 149.12964 | 32201 ft | 211 kts | 151° |
| 2026-05-05 10:02 | -33.34137 | 149.13498 | 32213 ft | 193 kts | 186° |
| 2026-05-05 10:02 | -33.35463 | 149.13461 | 32192 ft | 179 kts | 211° |
| 2026-05-05 10:03 | -33.36332 | 149.12660 | 32206 ft | 146 kts | 255° |
| 2026-05-05 10:03 | -33.36527 | 149.11542 | 32213 ft | 135 kts | 274° |
| 2026-05-05 10:03 | -33.36344 | 149.10475 | 32208 ft | 131 kts | 300° |
| 2026-05-05 10:03 | -33.35793 | 149.09616 | 32209 ft | 133 kts | 308° |
| 2026-05-05 10:04 | -33.35167 | 149.08783 | 32204 ft | 133 kts | 309° |
| 2026-05-05 10:04 | -33.34540 | 149.07964 | 32204 ft | 134 kts | 309° |